Terminal Aerodrome Forecast
Issued by NWS

Home | Current Version | Previous Version | Text Only | Print | Product List | Glossary On
Versions: 1 2 3 4 5 6 7 8 9 10 11 12
000
FTUS42 KMLB 021700
TAFLEE
TAF
KLEE 021735Z 0218/0318 12007KT P6SM VCTS SCT040CB SCT080 BKN250
      TEMPO 0219/0222 3SM TSRA BKN020CB OVC040
     FM030000 14003KT P6SM FEW040 BKN120
     FM031400 14006KT P6SM SCT250=

USA.gov is the U.S. government's official web portal to all federal, state and local government web resources and services.